Time;durP1;ratioP1;P1;durP2;ratioP2;P2;SDS_P1;SDS_P2;PMS_P1;PMS_P2;Temp;Humidity;BMP_temperature;BMP_pressure;BME280_temperature;BME280_humidity;BME280_pressure;Samples;Min_cycle;Max_cycle;Signal;HPM_P1;HPM_P2
2023/10/27 00:01:05;;;;;;;0.80;0.60;;;20.30;59.00;;;;;;5039231;28;20154;-69
2023/10/27 00:03:31;;;;;;;0.47;0.47;;;20.30;58.90;;;;;;5036817;28;20048;-70
2023/10/27 00:05:57;;;;;;;1.02;0.63;;;20.30;58.90;;;;;;5037152;28;20029;-70
2023/10/27 00:08:22;;;;;;;0.65;0.57;;;20.30;58.90;;;;;;5038909;28;20071;-67
2023/10/27 00:10:48;;;;;;;0.40;0.40;;;20.30;58.90;;;;;;5038716;28;20040;-67
2023/10/27 00:13:13;;;;;;;0.70;0.50;;;20.30;58.90;;;;;;5038441;28;20098;-67
2023/10/27 00:15:39;;;;;;;0.57;0.50;;;20.30;58.90;;;;;;5039484;28;20471;-66
2023/10/27 00:18:05;;;;;;;0.50;0.50;;;20.30;58.90;;;;;;5038517;28;20029;-67
2023/10/27 00:20:31;;;;;;;0.80;0.60;;;20.30;58.90;;;;;;5038466;28;20506;-67
2023/10/27 00:22:56;;;;;;;0.60;0.50;;;20.30;58.90;;;;;;5039261;28;20040;-67
2023/10/27 00:25:23;;;;;;;0.57;0.50;;;20.30;58.80;;;;;;5039751;28;20040;-67
2023/10/27 00:27:48;;;;;;;0.60;0.50;;;20.30;58.90;;;;;;5038972;28;20496;-67
2023/10/27 00:30:14;;;;;;;0.55;0.55;;;20.30;58.80;;;;;;5039971;28;20116;-67
2023/10/27 00:32:40;;;;;;;0.63;0.55;;;20.30;58.90;;;;;;5040023;28;20445;-67
2023/10/27 00:35:06;;;;;;;0.75;0.57;;;20.30;58.80;;;;;;5037128;28;20071;-67
2023/10/27 00:37:35;;;;;;;1.20;0.40;;;20.30;58.80;;;;;;5036821;28;20537;-67
2023/10/27 00:40:01;;;;;;;;;;;20.30;58.80;;;;;;5039273;28;20028;-68
2023/10/27 00:42:27;;;;;;;0.75;0.60;;;20.30;58.90;;;;;;5039565;28;19909;-67
2023/10/27 00:44:53;;;;;;;0.65;0.50;;;20.30;58.80;;;;;;5037583;28;20547;-66
2023/10/27 00:47:19;;;;;;;0.50;0.40;;;20.30;58.80;;;;;;5036633;28;20530;-67
2023/10/27 00:49:45;;;;;;;0.70;0.40;;;20.30;59.40;;;;;;5036620;28;20075;-67
2023/10/27 00:52:13;;;;;;;0.77;0.43;;;20.30;58.80;;;;;;5037771;28;20024;-67
2023/10/27 00:54:39;;;;;;;1.08;0.55;;;20.30;58.80;;;;;;5039013;28;20037;-67
2023/10/27 00:57:06;;;;;;;0.82;0.60;;;20.30;58.80;;;;;;5039293;28;20025;-67
2023/10/27 00:59:32;;;;;;;0.85;0.60;;;20.30;58.80;;;;;;5038317;28;20499;-69
2023/10/27 01:01:58;;;;;;;1.17;0.65;;;20.30;58.80;;;;;;5036735;28;20492;-69
2023/10/27 01:04:25;;;;;;;0.52;0.50;;;20.30;58.80;;;;;;5036780;28;20037;-70
2023/10/27 01:06:52;;;;;;;0.57;0.57;;;20.30;58.80;;;;;;5035738;28;20023;-69
2023/10/27 01:09:17;;;;;;;0.60;0.50;;;20.30;58.80;;;;;;5038458;28;20504;-69
2023/10/27 01:11:44;;;;;;;0.70;0.50;;;20.30;58.80;;;;;;5038558;28;20251;-69
2023/10/27 01:14:10;;;;;;;0.63;0.50;;;20.30;58.80;;;;;;5037222;28;20029;-69
2023/10/27 01:16:36;;;;;;;0.82;0.60;;;20.30;58.80;;;;;;5039090;28;20045;-69
2023/10/27 01:19:01;;;;;;;0.40;0.40;;;20.30;58.80;;;;;;5040272;28;20494;-70
2023/10/27 01:21:27;;;;;;;0.47;0.47;;;20.30;58.80;;;;;;5037893;28;20040;-69
2023/10/27 01:23:52;;;;;;;0.95;0.50;;;20.30;58.80;;;;;;5036480;28;20055;-70
2023/10/27 01:26:18;;;;;;;0.60;0.52;;;20.30;58.80;;;;;;5037010;28;20508;-70
2023/10/27 01:28:44;;;;;;;0.52;0.50;;;20.30;58.80;;;;;;5037759;28;20032;-69
2023/10/27 01:31:09;;;;;;;0.60;0.60;;;20.30;58.80;;;;;;5039452;28;20489;-69
2023/10/27 01:33:35;;;;;;;0.70;0.60;;;20.30;59.30;;;;;;5038568;28;20053;-70
2023/10/27 01:36:01;;;;;;;0.60;0.50;;;20.30;58.90;;;;;;5035165;28;20025;-70
2023/10/27 01:38:26;;;;;;;1.10;0.50;;;20.30;58.70;;;;;;5037512;28;20492;-70
2023/10/27 01:40:52;;;;;;;0.50;0.50;;;20.30;58.70;;;;;;5037690;28;20071;-69
2023/10/27 01:43:17;;;;;;;0.60;0.40;;;20.30;58.70;;;;;;5036633;28;20503;-70
2023/10/27 01:45:43;;;;;;;0.85;0.60;;;20.30;58.70;;;;;;5038808;28;20108;-70
2023/10/27 01:48:08;;;;;;;0.60;0.40;;;20.20;58.70;;;;;;5038325;28;20535;-69
2023/10/27 01:50:34;;;;;;;0.60;0.60;;;20.30;58.70;;;;;;5037002;28;20026;-69
2023/10/27 01:53:00;;;;;;;1.20;0.40;;;20.30;58.70;;;;;;5036187;28;20409;-70
2023/10/27 01:55:25;;;;;;;0.65;0.52;;;20.20;58.60;;;;;;5036503;28;20068;-70
2023/10/27 01:57:51;;;;;;;0.85;0.60;;;20.20;58.70;;;;;;5037767;28;20623;-69
2023/10/27 02:00:16;;;;;;;0.65;0.60;;;20.20;58.60;;;;;;5038323;28;20048;-70
2023/10/27 02:02:42;;;;;;;0.85;0.60;;;20.20;58.60;;;;;;5037043;28;20481;-70
2023/10/27 02:05:08;;;;;;;0.60;0.50;;;20.30;58.70;;;;;;5042017;28;20071;-70
2023/10/27 02:07:34;;;;;;;0.68;0.55;;;20.20;58.60;;;;;;5040704;28;20068;-70
2023/10/27 02:10:00;;;;;;;0.60;0.50;;;20.20;58.60;;;;;;5041035;28;20021;-69
2023/10/27 02:12:26;;;;;;;0.40;0.40;;;20.30;58.60;;;;;;5041257;28;20020;-70
2023/10/27 02:14:52;;;;;;;0.60;0.50;;;20.30;58.60;;;;;;5041498;28;20411;-69
2023/10/27 02:17:18;;;;;;;0.75;0.60;;;20.30;58.70;;;;;;5041572;28;20449;-69
2023/10/27 02:19:44;;;;;;;0.70;0.50;;;20.30;58.60;;;;;;5038101;28;20067;-69
2023/10/27 02:22:09;;;;;;;0.40;0.40;;;20.20;58.60;;;;;;5037935;28;20022;-69
2023/10/27 02:24:37;;;;;;;0.50;0.50;;;20.20;58.60;;;;;;5042761;28;20033;-69
2023/10/27 02:27:03;;;;;;;0.65;0.55;;;20.20;58.60;;;;;;5039688;28;20029;-70
2023/10/27 02:29:29;;;;;;;0.63;0.50;;;20.20;58.60;;;;;;5041261;28;20143;-67
2023/10/27 02:31:55;;;;;;;0.55;0.40;;;20.20;58.60;;;;;;5040724;28;20025;-67
2023/10/27 02:34:21;;;;;;;0.60;0.52;;;20.20;58.60;;;;;;5041885;28;20038;-67
2023/10/27 02:36:46;;;;;;;0.40;0.40;;;20.20;58.60;;;;;;5039138;28;20038;-67
2023/10/27 02:39:12;;;;;;;0.88;0.60;;;20.20;58.60;;;;;;5040296;28;20037;-67
2023/10/27 02:41:38;;;;;;;0.75;0.50;;;20.20;58.60;;;;;;5042132;28;20112;-67
2023/10/27 02:44:04;;;;;;;0.40;0.40;;;20.20;58.50;;;;;;5039626;28;20383;-67
2023/10/27 02:46:33;;;;;;;0.70;0.55;;;20.20;58.60;;;;;;5040558;28;20124;-67
2023/10/27 02:48:58;;;;;;;0.87;0.60;;;20.20;58.50;;;;;;5041595;28;20032;-67
2023/10/27 02:51:24;;;;;;;0.40;0.40;;;20.20;58.60;;;;;;5037987;28;20268;-68
2023/10/27 02:53:50;;;;;;;0.50;0.50;;;20.20;58.50;;;;;;5037794;28;20033;-68
2023/10/27 02:56:17;;;;;;;0.43;0.40;;;20.20;58.50;;;;;;5042724;28;20076;-67
2023/10/27 02:58:42;;;;;;;0.50;0.50;;;20.20;58.50;;;;;;5041674;28;20025;-67
2023/10/27 03:01:09;;;;;;;0.82;0.60;;;20.20;58.50;;;;;;5040988;28;20033;-66
2023/10/27 03:03:36;;;;;;;0.68;0.50;;;20.20;58.50;;;;;;5037652;28;20059;-67
2023/10/27 03:06:03;;;;;;;0.65;0.50;;;20.20;58.50;;;;;;5039759;28;20032;-67
2023/10/27 03:08:29;;;;;;;0.50;0.50;;;20.20;58.50;;;;;;5071555;28;20318;-66
2023/10/27 03:10:54;;;;;;;0.65;0.50;;;20.20;58.60;;;;;;5040465;28;20029;-67
2023/10/27 03:13:21;;;;;;;0.50;0.43;;;20.20;58.50;;;;;;5040465;28;20022;-67
2023/10/27 03:15:46;;;;;;;0.88;0.60;;;20.20;58.50;;;;;;5037760;28;20028;-66
2023/10/27 03:18:12;;;;;;;0.45;0.45;;;20.20;58.50;;;;;;5041342;28;20657;-70
2023/10/27 03:20:38;;;;;;;0.40;0.40;;;20.20;58.50;;;;;;5039806;28;20394;-69
2023/10/27 03:23:04;;;;;;;0.75;0.57;;;20.20;58.50;;;;;;5045951;28;20508;-69
2023/10/27 03:25:29;;;;;;;0.60;0.47;;;20.20;58.50;;;;;;5038400;28;20503;-70
2023/10/27 03:27:55;;;;;;;0.65;0.50;;;20.20;58.60;;;;;;5041151;28;20393;-69
2023/10/27 03:30:24;;;;;;;0.50;0.40;;;20.20;58.50;;;;;;5039931;28;20040;-69
2023/10/27 03:32:50;;;;;;;0.45;0.43;;;20.20;58.60;;;;;;5039751;28;20899;-69
2023/10/27 03:35:16;;;;;;;1.58;0.50;;;20.20;58.60;;;;;;5037320;28;20037;-70
2023/10/27 03:37:41;;;;;;;0.50;0.40;;;20.20;58.60;;;;;;5039756;28;20082;-69
2023/10/27 03:40:08;;;;;;;0.45;0.40;;;20.20;58.50;;;;;;5040628;28;20076;-69
2023/10/27 03:42:34;;;;;;;0.45;0.40;;;20.20;58.50;;;;;;5039675;28;20033;-69
2023/10/27 03:44:59;;;;;;;0.50;0.50;;;20.10;58.50;;;;;;5039649;28;20048;-69
2023/10/27 03:47:25;;;;;;;0.70;0.47;;;20.20;58.60;;;;;;5039754;28;20441;-69
2023/10/27 03:49:51;;;;;;;0.35;0.32;;;20.10;58.50;;;;;;5039166;28;20156;-68
2023/10/27 03:52:17;;;;;;;0.40;0.40;;;20.10;58.50;;;;;;5038059;28;20052;-68
2023/10/27 03:54:42;;;;;;;0.60;0.60;;;20.20;58.60;;;;;;5039089;28;20778;-68
2023/10/27 03:57:08;;;;;;;0.40;0.40;;;20.10;58.50;;;;;;5039530;28;20053;-68
2023/10/27 03:59:34;;;;;;;0.55;0.40;;;20.10;58.50;;;;;;5038507;28;20075;-68
2023/10/27 04:01:59;;;;;;;0.52;0.40;;;20.20;58.60;;;;;;5037678;28;20151;-69
2023/10/27 04:04:25;;;;;;;0.63;0.40;;;20.10;58.50;;;;;;5039679;28;20031;-68
2023/10/27 04:06:51;;;;;;;0.50;0.50;;;20.10;58.50;;;;;;5038771;28;20025;-69
2023/10/27 04:09:16;;;;;;;0.80;0.60;;;20.10;58.60;;;;;;5037194;28;20471;-68
2023/10/27 04:11:43;;;;;;;0.43;0.43;;;20.10;58.50;;;;;;5038707;28;20035;-68
2023/10/27 04:14:08;;;;;;;0.40;0.40;;;20.10;58.60;;;;;;5039815;28;20033;-68
2023/10/27 04:16:34;;;;;;;0.30;0.30;;;20.20;58.70;;;;;;5039323;28;20021;-68
2023/10/27 04:19:00;;;;;;;0.80;0.50;;;20.10;58.60;;;;;;5037812;28;20950;-68
2023/10/27 04:21:26;;;;;;;0.50;0.50;;;20.10;58.70;;;;;;5040298;28;20460;-68
2023/10/27 04:23:52;;;;;;;0.50;0.50;;;20.10;58.70;;;;;;5037726;28;20069;-68
2023/10/27 04:26:17;;;;;;;0.45;0.40;;;20.10;58.70;;;;;;5037598;28;20396;-68
2023/10/27 04:28:43;;;;;;;0.55;0.50;;;20.10;58.80;;;;;;5039833;28;20166;-66
2023/10/27 04:31:09;;;;;;;0.40;0.40;;;20.10;58.80;;;;;;5037841;28;20056;-67
2023/10/27 04:33:38;;;;;;;0.45;0.40;;;20.10;58.80;;;;;;5045257;28;20044;-67
2023/10/27 04:36:05;;;;;;;1.83;0.68;;;20.10;58.90;;;;;;5038893;28;20032;-67
2023/10/27 04:38:30;;;;;;;0.80;0.50;;;20.10;58.90;;;;;;5037110;28;20041;-67
2023/10/27 04:40:56;;;;;;;0.40;0.40;;;20.10;59.00;;;;;;5036696;28;20041;-67
2023/10/27 04:43:22;;;;;;;1.17;0.70;;;20.10;59.00;;;;;;5039944;28;20374;-67
2023/10/27 04:45:47;;;;;;;0.40;0.40;;;20.10;59.00;;;;;;5037601;28;20396;-67
2023/10/27 04:48:13;;;;;;;0.60;0.40;;;20.10;59.00;;;;;;5036289;28;20024;-69
2023/10/27 04:50:39;;;;;;;0.98;0.63;;;20.10;59.00;;;;;;5054519;28;20024;-66
2023/10/27 04:53:05;;;;;;;0.43;0.40;;;20.10;59.10;;;;;;5038211;28;20389;-66
2023/10/27 04:55:31;;;;;;;0.85;0.63;;;20.10;59.10;;;;;;5037737;28;20040;-65
2023/10/27 04:57:57;;;;;;;0.30;0.30;;;20.10;59.10;;;;;;5038360;28;20107;-66
2023/10/27 05:00:23;;;;;;;1.05;0.50;;;20.10;59.10;;;;;;5038639;28;20025;-65
2023/10/27 05:02:50;;;;;;;0.68;0.40;;;20.10;59.20;;;;;;5037073;28;20039;-66
2023/10/27 05:05:16;;;;;;;0.68;0.60;;;20.10;59.10;;;;;;5037539;28;20470;-66
2023/10/27 05:07:41;;;;;;;1.27;0.60;;;20.10;59.20;;;;;;5037829;28;20021;-66
2023/10/27 05:10:08;;;;;;;1.15;0.50;;;20.10;59.10;;;;;;5036779;28;20420;-66
2023/10/27 05:12:36;;;;;;;0.98;0.50;;;20.10;59.20;;;;;;5038930;28;20028;-66
2023/10/27 05:15:03;;;;;;;0.57;0.40;;;20.10;59.10;;;;;;5039355;28;20465;-67
2023/10/27 05:17:29;;;;;;;1.15;0.60;;;20.10;59.10;;;;;;5038733;28;20031;-65
2023/10/27 05:19:54;;;;;;;0.82;0.55;;;20.10;59.10;;;;;;5037106;28;20461;-66
2023/10/27 05:22:22;;;;;;;0.93;0.50;;;20.10;59.10;;;;;;5037474;28;20029;-67
2023/10/27 05:24:48;;;;;;;1.08;0.50;;;20.10;59.10;;;;;;5037237;28;20043;-65
2023/10/27 05:27:14;;;;;;;0.65;0.47;;;20.10;59.10;;;;;;5037107;28;20026;-65
2023/10/27 05:29:39;;;;;;;0.40;0.40;;;20.10;59.10;;;;;;5036533;28;20026;-66
2023/10/27 05:32:05;;;;;;;0.40;0.40;;;20.10;59.10;;;;;;5037494;28;20520;-66
2023/10/27 05:34:31;;;;;;;0.75;0.40;;;20.10;59.10;;;;;;5038840;28;20060;-66
2023/10/27 05:36:56;;;;;;;0.50;0.40;;;20.10;59.10;;;;;;5038380;28;20030;-68
2023/10/27 05:39:26;;;;;;;0.85;0.43;;;20.10;59.00;;;;;;5036100;28;20039;-67
2023/10/27 05:41:52;;;;;;;;;;;20.10;59.10;;;;;;5042931;28;20021;-67
2023/10/27 05:44:17;;;;;;;0.55;0.40;;;20.10;59.10;;;;;;5042251;28;19912;-66
2023/10/27 05:46:43;;;;;;;0.40;0.40;;;20.10;59.00;;;;;;5041379;28;20075;-67
2023/10/27 05:49:08;;;;;;;0.38;0.38;;;20.10;59.00;;;;;;5039871;28;20017;-67
2023/10/27 05:51:37;;;;;;;0.60;0.50;;;20.10;59.10;;;;;;5041762;28;20481;-66
2023/10/27 05:54:04;;;;;;;0.50;0.40;;;20.10;59.00;;;;;;5041490;28;20030;-67
2023/10/27 05:56:30;;;;;;;0.40;0.40;;;20.10;59.00;;;;;;5041794;28;20032;-68
2023/10/27 05:58:56;;;;;;;0.75;0.40;;;20.10;59.00;;;;;;5043768;28;20029;-68
2023/10/27 06:01:22;;;;;;;0.52;0.43;;;20.10;59.00;;;;;;5040575;28;20036;-67
2023/10/27 06:03:48;;;;;;;1.63;0.47;;;20.10;59.00;;;;;;5041408;28;20018;-67
2023/10/27 06:06:14;;;;;;;0.75;0.50;;;20.10;59.00;;;;;;5039779;28;20485;-66
2023/10/27 06:08:44;;;;;;;0.98;0.43;;;20.10;59.00;;;;;;5038316;28;20032;-67
2023/10/27 06:11:10;;;;;;;0.88;0.40;;;20.10;59.00;;;;;;5040913;28;20025;-67
2023/10/27 06:13:37;;;;;;;0.52;0.40;;;20.10;59.00;;;;;;5041132;28;20482;-67
2023/10/27 06:16:03;;;;;;;0.52;0.45;;;20.10;59.00;;;;;;5040674;28;20035;-66
2023/10/27 06:18:29;;;;;;;0.60;0.30;;;20.10;59.00;;;;;;5039737;28;20021;-67
2023/10/27 06:20:55;;;;;;;0.70;0.50;;;20.10;58.90;;;;;;5040477;28;20033;-67
2023/10/27 06:23:20;;;;;;;0.85;0.40;;;20.10;59.00;;;;;;5039315;28;20044;-67
2023/10/27 06:25:46;;;;;;;1.70;0.50;;;20.10;59.00;;;;;;5040081;28;20120;-66
2023/10/27 06:28:12;;;;;;;0.35;0.35;;;20.10;58.90;;;;;;5038151;28;20028;-68
2023/10/27 06:30:38;;;;;;;0.90;0.40;;;20.10;59.00;;;;;;5042157;28;20025;-67
2023/10/27 06:33:03;;;;;;;0.60;0.50;;;20.10;59.00;;;;;;5041402;28;20021;-67
2023/10/27 06:35:29;;;;;;;0.60;0.40;;;20.10;59.00;;;;;;5041170;28;20033;-67
2023/10/27 06:37:55;;;;;;;0.82;0.50;;;20.10;59.00;;;;;;5041156;28;20059;-67
2023/10/27 06:40:21;;;;;;;0.63;0.40;;;20.10;59.00;;;;;;5042887;28;20054;-67
2023/10/27 06:42:47;;;;;;;0.40;0.40;;;20.10;59.00;;;;;;5038423;28;20029;-67
2023/10/27 06:45:12;;;;;;;1.20;0.50;;;20.10;58.90;;;;;;5040275;28;20096;-67
2023/10/27 06:47:39;;;;;;;0.73;0.47;;;20.10;58.90;;;;;;5041605;28;20022;-67
2023/10/27 06:50:05;;;;;;;0.40;0.40;;;20.10;59.00;;;;;;5038023;28;20025;-68
2023/10/27 06:52:31;;;;;;;1.15;0.60;;;20.10;58.90;;;;;;5039904;28;20496;-69
2023/10/27 06:54:57;;;;;;;0.40;0.40;;;20.10;59.00;;;;;;5037838;28;20095;-68
2023/10/27 06:57:23;;;;;;;0.80;0.52;;;20.10;58.90;;;;;;5039263;28;20056;-68
2023/10/27 06:59:48;;;;;;;0.40;0.30;;;20.10;59.00;;;;;;5040562;28;20033;-68
2023/10/27 07:02:14;;;;;;;0.52;0.40;;;20.10;58.90;;;;;;5041260;28;20053;-69
2023/10/27 07:04:40;;;;;;;0.57;0.40;;;20.10;59.00;;;;;;5039054;28;20542;-69
2023/10/27 07:07:06;;;;;;;0.45;0.40;;;20.10;58.90;;;;;;5039624;28;20474;-68
2023/10/27 07:09:32;;;;;;;0.68;0.60;;;20.10;58.90;;;;;;5041517;28;20021;-68
2023/10/27 07:12:00;;;;;;;0.50;0.40;;;20.10;58.90;;;;;;5040665;28;20682;-69
2023/10/27 07:14:26;;;;;;;1.02;0.50;;;20.10;58.90;;;;;;5039015;28;20025;-69
2023/10/27 07:16:52;;;;;;;1.90;0.60;;;20.10;58.90;;;;;;5040311;28;20029;-69
2023/10/27 07:19:19;;;;;;;0.40;0.40;;;20.10;58.90;;;;;;5038471;28;20489;-68
2023/10/27 07:21:44;;;;;;;1.40;0.50;;;20.10;58.90;;;;;;5039400;28;20025;-68
2023/10/27 07:24:10;;;;;;;0.50;0.40;;;20.10;58.90;;;;;;5039446;28;20036;-68
2023/10/27 07:26:36;;;;;;;0.30;0.30;;;20.00;58.80;;;;;;5037357;28;20330;-69
2023/10/27 07:29:02;;;;;;;0.50;0.40;;;20.10;58.90;;;;;;5039545;28;20029;-69
2023/10/27 07:31:28;;;;;;;2.08;0.60;;;20.10;58.90;;;;;;5040177;28;20075;-69
2023/10/27 07:33:54;;;;;;;0.85;0.50;;;20.00;58.90;;;;;;5038462;28;20025;-70
2023/10/27 07:36:20;;;;;;;0.60;0.43;;;20.10;58.90;;;;;;5041365;28;20028;-69
2023/10/27 07:38:46;;;;;;;1.80;0.50;;;20.00;58.90;;;;;;5040641;28;20441;-69
2023/10/27 07:41:11;;;;;;;0.40;0.40;;;20.00;58.80;;;;;;5039304;28;20029;-68
2023/10/27 07:43:37;;;;;;;0.75;0.40;;;20.10;58.90;;;;;;5039127;28;20032;-69
2023/10/27 07:46:03;;;;;;;0.55;0.47;;;20.10;58.90;;;;;;5038404;28;20417;-69
2023/10/27 07:48:29;;;;;;;0.90;0.50;;;20.10;58.90;;;;;;5040125;28;20326;-69
2023/10/27 07:50:57;;;;;;;1.00;0.52;;;20.10;58.90;;;;;;5041907;28;20128;-69
2023/10/27 07:53:24;;;;;;;0.63;0.50;;;20.00;58.80;;;;;;5040606;28;20075;-69
2023/10/27 07:55:50;;;;;;;0.70;0.40;;;20.10;58.90;;;;;;5037879;28;20026;-69
2023/10/27 07:58:15;;;;;;;0.98;0.60;;;20.00;58.80;;;;;;5038929;28;20496;-69
2023/10/27 08:00:41;;;;;;;0.40;0.40;;;20.00;58.80;;;;;;5039186;28;20448;-66
2023/10/27 08:03:07;;;;;;;0.68;0.40;;;20.10;59.30;;;;;;5037421;28;20044;-68
2023/10/27 08:05:32;;;;;;;0.60;0.50;;;20.10;58.80;;;;;;5037246;28;20080;-66
2023/10/27 08:07:58;;;;;;;0.30;0.30;;;20.00;58.80;;;;;;5038443;28;20025;-66
2023/10/27 08:10:24;;;;;;;0.57;0.50;;;20.00;58.80;;;;;;5036670;28;20606;-66
2023/10/27 08:12:50;;;;;;;0.60;0.40;;;20.10;58.90;;;;;;5039635;28;20028;-66
2023/10/27 08:15:16;;;;;;;0.55;0.55;;;20.00;58.80;;;;;;5039841;28;20021;-66
2023/10/27 08:17:42;;;;;;;0.73;0.40;;;20.00;58.80;;;;;;5037716;28;20025;-66
2023/10/27 08:20:08;;;;;;;0.50;0.50;;;20.10;58.90;;;;;;5037485;28;20476;-67
2023/10/27 08:22:34;;;;;;;0.75;0.50;;;20.10;58.80;;;;;;5038316;28;20033;-67
2023/10/27 08:25:01;;;;;;;0.60;0.45;;;20.10;58.80;;;;;;5035853;28;20140;-67
2023/10/27 08:27:26;;;;;;;0.38;0.38;;;20.00;58.70;;;;;;5038252;28;20025;-67
2023/10/27 08:29:56;;;;;;;0.40;0.40;;;20.10;58.80;;;;;;5039864;28;20025;-67
2023/10/27 08:32:22;;;;;;;0.40;0.40;;;20.10;58.80;;;;;;5037787;28;20025;-67
2023/10/27 08:34:48;;;;;;;1.05;0.50;;;20.00;58.70;;;;;;5039034;28;20591;-67
2023/10/27 08:37:16;;;;;;;1.30;0.50;;;20.00;58.80;;;;;;5038708;28;20091;-67
2023/10/27 08:39:42;;;;;;;0.43;0.40;;;20.00;58.80;;;;;;5037257;28;20043;-68
2023/10/27 08:42:08;;;;;;;1.05;0.52;;;20.10;58.80;;;;;;5039062;28;20061;-67
2023/10/27 08:44:34;;;;;;;0.63;0.50;;;20.00;58.80;;;;;;5037830;28;20064;-67
2023/10/27 08:47:03;;;;;;;0.60;0.47;;;20.10;58.80;;;;;;5038580;28;20031;-67
2023/10/27 08:49:28;;;;;;;0.50;0.40;;;20.00;58.80;;;;;;5037874;28;20016;-67
2023/10/27 08:51:56;;;;;;;0.43;0.40;;;20.10;58.80;;;;;;5038570;28;20064;-68
2023/10/27 08:54:22;;;;;;;0.40;0.40;;;20.10;58.90;;;;;;5036455;28;20507;-67
2023/10/27 08:56:47;;;;;;;0.30;0.30;;;20.00;58.80;;;;;;5038858;28;20033;-67
2023/10/27 08:59:14;;;;;;;0.40;0.40;;;20.00;58.80;;;;;;5036076;28;20426;-68
2023/10/27 09:01:41;;;;;;;0.82;0.52;;;20.10;58.90;;;;;;5039480;28;20037;-67
2023/10/27 09:04:11;;;;;;;0.63;0.60;;;20.10;58.90;;;;;;5038432;28;20025;-68
2023/10/27 09:06:38;;;;;;;0.40;0.40;;;20.00;58.80;;;;;;5039813;28;20388;-68
2023/10/27 09:09:09;;;;;;;0.52;0.50;;;20.00;58.80;;;;;;5039520;28;20082;-67
2023/10/27 09:11:47;;;;;;;0.32;0.32;;;20.00;58.80;;;;;;5038000;28;20040;-68
2023/10/27 09:14:33;;;;;;;0.45;0.40;;;20.10;58.80;;;;;;5041308;28;20040;-68
2023/10/27 09:17:09;;;;;;;0.40;0.38;;;20.10;58.80;;;;;;5043291;28;20546;-68
2023/10/27 09:19:36;;;;;;;0.75;0.52;;;20.10;58.80;;;;;;5044135;28;20434;-67
2023/10/27 09:22:05;;;;;;;0.40;0.40;;;20.00;58.80;;;;;;5042721;28;20100;-67
2023/10/27 09:24:30;;;;;;;0.40;0.40;;;20.00;58.80;;;;;;5040986;28;20108;-67
2023/10/27 09:27:00;;;;;;;0.63;0.50;;;20.00;58.80;;;;;;5049478;28;20216;-68
2023/10/27 09:29:31;;;;;;;0.43;0.43;;;20.10;58.80;;;;;;5042664;28;20542;-68
2023/10/27 09:31:57;;;;;;;0.60;0.40;;;20.00;58.80;;;;;;5042359;28;20025;-66
2023/10/27 09:34:25;;;;;;;0.60;0.40;;;20.00;58.80;;;;;;5041544;28;20151;-66
2023/10/27 09:36:56;;;;;;;0.43;0.43;;;20.00;58.80;;;;;;5042937;28;20448;-66
2023/10/27 09:39:23;;;;;;;0.57;0.40;;;20.00;58.70;;;;;;5040529;28;20489;-66
2023/10/27 09:42:06;;;;;;;0.50;0.40;;;20.10;58.80;;;;;;5040130;28;20739;-66
2023/10/27 09:44:45;;;;;;;0.55;0.40;;;20.00;58.80;;;;;;5039573;28;20477;-66
2023/10/27 09:47:17;;;;;;;0.40;0.40;;;20.00;58.70;;;;;;5042432;28;20036;-66
2023/10/27 09:49:48;;;;;;;0.40;0.40;;;20.00;58.80;;;;;;5044097;28;20033;-67
2023/10/27 09:52:19;;;;;;;0.70;0.60;;;20.00;58.80;;;;;;5042086;28;20032;-66
2023/10/27 09:54:46;;;;;;;0.50;0.40;;;20.00;58.80;;;;;;5038422;28;20459;-68
2023/10/27 09:57:13;;;;;;;0.40;0.40;;;20.00;58.80;;;;;;5041724;28;20373;-66
2023/10/27 09:59:40;;;;;;;0.73;0.40;;;20.10;58.80;;;;;;5041608;28;20143;-66
2023/10/27 10:02:07;;;;;;;1.25;0.50;;;20.00;58.80;;;;;;5042177;28;20051;-68
2023/10/27 10:04:51;;;;;;;0.43;0.40;;;20.00;58.80;;;;;;5041654;28;20425;-66
2023/10/27 10:07:28;;;;;;;0.30;0.30;;;20.00;58.80;;;;;;5041153;28;20029;-66
2023/10/27 10:09:54;;;;;;;0.55;0.40;;;20.00;58.80;;;;;;5041427;28;20116;-66
2023/10/27 10:12:20;;;;;;;0.45;0.43;;;20.00;58.80;;;;;;5040375;28;20764;-67
2023/10/27 10:14:48;;;;;;;0.68;0.43;;;20.00;58.80;;;;;;5040360;28;20029;-66
2023/10/27 10:17:40;;;;;;;0.50;0.50;;;20.00;58.80;;;;;;5040793;28;20121;-67
2023/10/27 10:20:09;;;;;;;0.57;0.57;;;20.00;58.90;;;;;;5041732;28;20491;-67
2023/10/27 10:22:51;;;;;;;0.43;0.40;;;20.00;58.80;;;;;;5040265;28;20652;-68
2023/10/27 10:25:23;;;;;;;0.80;0.50;;;20.00;58.90;;;;;;5038198;28;20402;-68
2023/10/27 10:28:07;;;;;;;0.40;0.40;;;20.00;58.80;;;;;;5039644;28;20017;-68
2023/10/27 10:30:40;;;;;;;0.50;0.50;;;20.10;58.90;;;;;;5039932;28;20029;-68
2023/10/27 10:33:23;;;;;;;0.68;0.50;;;20.00;58.80;;;;;;5041620;28;20057;-68
2023/10/27 10:35:50;;;;;;;0.40;0.40;;;20.00;58.80;;;;;;5048166;28;20033;-68
2023/10/27 10:38:22;;;;;;;0.80;0.50;;;20.00;58.80;;;;;;5040672;28;20029;-68
2023/10/27 10:40:55;;;;;;;0.40;0.40;;;20.10;58.90;;;;;;5038966;28;20032;-69
2023/10/27 10:43:26;;;;;;;0.82;0.50;;;20.00;58.80;;;;;;5047886;28;20024;-69
2023/10/27 10:45:57;;;;;;;0.40;0.40;;;20.00;58.80;;;;;;5040070;28;20024;-69
2023/10/27 10:48:27;;;;;;;0.65;0.60;;;20.00;58.80;;;;;;5040287;28;20473;-69
2023/10/27 10:50:55;;;;;;;0.40;0.40;;;20.00;58.80;;;;;;5041268;28;20022;-68
2023/10/27 10:53:24;;;;;;;0.50;0.40;;;20.00;58.80;;;;;;5040719;28;20032;-68
2023/10/27 10:55:50;;;;;;;0.40;0.40;;;20.10;58.80;;;;;;5039064;28;20030;-68
2023/10/27 10:58:24;;;;;;;0.43;0.40;;;20.00;58.80;;;;;;5038670;28;20040;-69
2023/10/27 11:00:50;;;;;;;0.60;0.40;;;20.00;58.80;;;;;;5040756;28;20159;-69
2023/10/27 11:03:17;;;;;;;0.60;0.50;;;20.00;58.80;;;;;;5040181;28;20054;-69
2023/10/27 11:05:42;;;;;;;0.43;0.40;;;20.00;59.30;;;;;;5039919;28;20033;-69
2023/10/27 11:08:08;;;;;;;0.40;0.40;;;20.00;58.80;;;;;;5040883;28;20358;-69
2023/10/27 11:10:35;;;;;;;0.40;0.40;;;20.00;58.80;;;;;;5038595;28;20032;-69
2023/10/27 11:13:04;;;;;;;0.40;0.40;;;20.00;58.80;;;;;;5040047;28;20134;-69
2023/10/27 11:15:40;;;;;;;0.75;0.40;;;20.00;58.80;;;;;;5040039;28;20033;-69
2023/10/27 11:18:16;;;;;;;0.40;0.40;;;20.00;58.80;;;;;;5038935;28;20029;-69
2023/10/27 11:20:45;;;;;;;0.40;0.40;;;20.00;58.80;;;;;;5040446;28;20037;-68
2023/10/27 11:23:12;;;;;;;0.45;0.40;;;20.10;58.90;;;;;;5038006;28;20029;-69
2023/10/27 11:25:42;;;;;;;0.43;0.43;;;20.00;58.80;;;;;;5038325;28;20047;-69
2023/10/27 11:28:26;;;;;;;0.50;0.50;;;20.00;58.80;;;;;;5039375;28;20426;-69
2023/10/27 11:31:19;;;;;;;0.30;0.30;;;20.00;58.80;;;;;;5040049;28;20385;-69
2023/10/27 11:34:04;;;;;;;0.30;0.30;;;20.00;58.80;;;;;;5040543;28;20488;-69
2023/10/27 11:36:33;;;;;;;0.60;0.50;;;20.00;58.80;;;;;;5055485;28;20441;-68
2023/10/27 11:39:15;;;;;;;0.80;0.50;;;20.00;58.80;;;;;;5055306;28;20025;-68
2023/10/27 11:41:48;;;;;;;0.50;0.45;;;20.00;58.80;;;;;;5039420;28;20036;-68
2023/10/27 11:44:15;;;;;;;0.50;0.50;;;20.00;58.80;;;;;;5041932;28;20111;-68
2023/10/27 11:46:48;;;;;;;0.47;0.40;;;20.10;58.90;;;;;;5038169;28;20481;-68
2023/10/27 11:49:14;;;;;;;0.47;0.35;;;20.10;58.90;;;;;;5040452;28;20580;-68
2023/10/27 11:51:43;;;;;;;0.38;0.32;;;20.00;58.80;;;;;;5039741;28;20198;-68
2023/10/27 11:54:08;;;;;;;0.40;0.40;;;20.00;58.80;;;;;;5039354;28;20032;-66
2023/10/27 11:56:34;;;;;;;0.52;0.40;;;20.00;58.90;;;;;;5038799;28;20175;-66
2023/10/27 11:58:59;;;;;;;0.40;0.40;;;20.00;58.80;;;;;;5038124;28;20033;-66
2023/10/27 12:01:25;;;;;;;0.40;0.40;;;20.00;58.80;;;;;;5039289;28;20040;-66
2023/10/27 12:03:51;;;;;;;0.50;0.40;;;20.00;58.80;;;;;;5038707;28;20029;-67
2023/10/27 12:06:16;;;;;;;0.40;0.40;;;20.00;58.80;;;;;;5038634;28;20064;-67
2023/10/27 12:08:42;;;;;;;0.45;0.40;;;20.00;58.80;;;;;;5038728;28;20420;-66
2023/10/27 12:11:08;;;;;;;0.98;0.40;;;20.00;58.90;;;;;;5038427;28;20096;-68
2023/10/27 12:13:33;;;;;;;0.45;0.43;;;20.00;59.00;;;;;;5037889;28;20377;-68
2023/10/27 12:15:59;;;;;;;0.50;0.40;;;20.00;59.00;;;;;;5037681;28;20367;-68
2023/10/27 12:18:25;;;;;;;2.33;0.40;;;20.10;59.20;;;;;;5039061;28;20033;-68
2023/10/27 12:20:50;;;;;;;0.80;0.47;;;20.10;59.30;;;;;;5037494;28;20083;-66
2023/10/27 12:23:18;;;;;;;0.30;0.30;;;20.10;59.30;;;;;;5038146;28;20152;-68
2023/10/27 12:25:43;;;;;;;0.50;0.45;;;20.10;59.30;;;;;;5039629;28;20021;-68
2023/10/27 12:28:09;;;;;;;0.40;0.40;;;20.10;59.30;;;;;;5037612;28;20502;-68
2023/10/27 12:30:40;;;;;;;0.40;0.40;;;20.10;59.30;;;;;;5039648;28;20037;-68
2023/10/27 12:33:09;;;;;;;0.82;0.40;;;20.10;59.80;;;;;;5038546;28;20342;-68
2023/10/27 12:35:35;;;;;;;1.60;0.50;;;20.20;59.40;;;;;;5040017;28;20025;-68
2023/10/27 12:38:04;;;;;;;0.30;0.30;;;20.20;59.40;;;;;;5039461;28;20028;-68
2023/10/27 12:40:30;;;;;;;0.52;0.40;;;20.20;59.30;;;;;;5036563;28;20446;-67
2023/10/27 12:42:56;;;;;;;0.32;0.32;;;20.20;59.30;;;;;;5038086;28;20033;-68
2023/10/27 12:45:23;;;;;;;1.33;0.30;;;20.20;59.30;;;;;;5036836;28;20481;-68
2023/10/27 12:47:50;;;;;;;1.95;0.50;;;20.20;59.30;;;;;;5036764;28;20071;-68